Time;durP1;ratioP1;P1;durP2;ratioP2;P2;SDS_P1;SDS_P2;PMS_P1;PMS_P2;Temp;Humidity;BMP_temperature;BMP_pressure;BME280_temperature;BME280_humidity;BME280_pressure;Samples;Min_cycle;Max_cycle;Signal;HPM_P1;HPM_P2
2023/04/25 00:01:05;;;;;;;15.52;4.70;;;5.90;99.90;;;;;;5026610;28;20123;-68
2023/04/25 00:03:31;;;;;;;18.00;4.93;;;5.90;99.90;;;;;;5011627;28;20401;-68
2023/04/25 00:06:02;;;;;;;21.27;4.68;;;5.80;99.90;;;;;;5027810;28;20068;-68
2023/04/25 00:08:29;;;;;;;18.08;4.85;;;5.80;99.90;;;;;;5010459;28;20064;-68
2023/04/25 00:10:55;;;;;;;14.00;3.88;;;5.80;99.90;;;;;;5025123;28;20036;-69
2023/04/25 00:13:21;;;;;;;20.80;5.53;;;5.80;99.90;;;;;;5028133;28;20073;-68
2023/04/25 00:15:48;;;;;;;18.95;4.82;;;5.80;99.90;;;;;;4992448;28;20064;-68
2023/04/25 00:18:14;;;;;;;11.48;4.40;;;5.80;99.90;;;;;;5025378;28;20049;-68
2023/04/25 00:20:46;;;;;;;22.05;5.10;;;5.80;99.90;;;;;;5028029;28;20045;-68
2023/04/25 00:23:21;;;;;;;12.70;5.15;;;5.70;99.90;;;;;;5011378;28;20044;-68
2023/04/25 00:25:48;;;;;;;13.93;3.85;;;5.70;99.90;;;;;;5008834;28;20041;-68
2023/04/25 00:28:15;;;;;;;20.48;4.28;;;5.70;99.90;;;;;;5025314;28;20120;-68
2023/04/25 00:30:42;;;;;;;23.50;5.30;;;5.70;99.90;;;;;;5028266;28;20044;-68
2023/04/25 00:33:08;;;;;;;12.90;5.07;;;5.70;99.90;;;;;;5027217;28;20474;-68
2023/04/25 00:35:34;;;;;;;20.33;6.40;;;5.70;99.90;;;;;;5026116;28;20044;-68
2023/04/25 00:38:00;;;;;;;22.67;5.13;;;5.70;99.90;;;;;;5023832;28;20521;-68
2023/04/25 00:40:26;;;;;;;21.65;5.28;;;5.60;99.90;;;;;;4993603;28;20405;-68
2023/04/25 00:42:53;;;;;;;15.82;4.65;;;5.60;99.90;;;;;;5046615;28;20471;-68
2023/04/25 00:45:19;;;;;;;15.30;4.75;;;5.50;99.90;;;;;;5030822;28;20048;-68
2023/04/25 00:47:45;;;;;;;17.20;4.97;;;5.50;99.90;;;;;;5028482;28;20048;-68
2023/04/25 00:50:13;;;;;;;21.20;6.25;;;5.40;99.90;;;;;;5029906;28;20402;-68
2023/04/25 00:52:41;;;;;;;16.17;4.43;;;5.30;99.90;;;;;;5012746;28;20041;-68
2023/04/25 00:55:07;;;;;;;19.58;4.57;;;5.30;99.90;;;;;;5048466;28;20375;-68
2023/04/25 00:57:34;;;;;;;16.30;4.55;;;5.20;99.90;;;;;;5028318;28;20037;-68
2023/04/25 01:00:00;;;;;;;14.95;4.75;;;5.20;99.90;;;;;;5029662;28;20049;-68
2023/04/25 01:02:26;;;;;;;20.45;6.13;;;5.20;99.90;;;;;;5030422;28;20071;-68
2023/04/25 01:04:53;;;;;;;19.63;6.22;;;5.10;99.90;;;;;;5029748;28;20053;-68
2023/04/25 01:07:18;;;;;;;24.85;5.63;;;5.20;99.90;;;;;;5028659;28;20056;-68
2023/04/25 01:09:45;;;;;;;19.58;5.53;;;5.10;99.90;;;;;;5029661;28;20489;-68
2023/04/25 01:12:11;;;;;;;16.10;4.82;;;5.10;99.90;;;;;;4997965;28;20037;-68
2023/04/25 01:14:37;;;;;;;11.55;4.53;;;5.10;99.90;;;;;;5008845;28;20048;-68
2023/04/25 01:17:02;;;;;;;13.98;4.50;;;5.10;99.90;;;;;;5028507;28;20037;-68
2023/04/25 01:19:29;;;;;;;17.33;5.00;;;5.10;99.90;;;;;;5011628;28;20068;-68
2023/04/25 01:21:55;;;;;;;12.55;4.13;;;5.10;99.90;;;;;;5028307;28;20036;-67
2023/04/25 01:24:21;;;;;;;20.02;4.75;;;5.10;99.90;;;;;;5012986;28;20048;-68
2023/04/25 01:26:49;;;;;;;15.20;5.10;;;5.10;99.90;;;;;;5028832;28;20048;-68
2023/04/25 01:29:19;;;;;;;11.82;4.65;;;5.10;99.90;;;;;;5028828;28;20090;-68
2023/04/25 01:31:46;;;;;;;19.23;4.47;;;4.90;99.90;;;;;;5012831;28;20045;-68
2023/04/25 01:34:12;;;;;;;14.60;4.40;;;5.00;99.90;;;;;;5008883;28;20394;-68
2023/04/25 01:36:38;;;;;;;17.40;4.88;;;5.00;99.90;;;;;;5028722;28;20120;-68
2023/04/25 01:39:04;;;;;;;11.43;4.35;;;4.90;99.90;;;;;;5027395;28;20041;-68
2023/04/25 01:41:31;;;;;;;16.63;3.95;;;4.80;99.90;;;;;;5012456;28;20041;-68
2023/04/25 01:43:57;;;;;;;13.35;4.03;;;4.80;99.90;;;;;;5025821;28;20052;-68
2023/04/25 01:46:22;;;;;;;15.63;4.28;;;4.80;99.90;;;;;;5029375;28;20056;-68
2023/04/25 01:48:48;;;;;;;13.32;4.35;;;4.80;99.90;;;;;;5028587;28;20045;-68
2023/04/25 01:51:15;;;;;;;18.27;5.18;;;4.70;99.90;;;;;;5011703;28;20036;-68
2023/04/25 01:53:41;;;;;;;17.77;5.53;;;4.60;99.90;;;;;;5027624;28;20104;-68
2023/04/25 01:56:07;;;;;;;19.15;4.68;;;4.60;99.90;;;;;;5012779;28;20041;-68
2023/04/25 01:58:33;;;;;;;16.33;5.55;;;4.60;99.90;;;;;;5008803;28;20383;-68
2023/04/25 02:00:59;;;;;;;18.58;4.57;;;4.60;99.90;;;;;;4993498;28;20091;-68
2023/04/25 02:03:25;;;;;;;15.02;4.10;;;4.60;99.90;;;;;;4993241;28;20029;-67
2023/04/25 02:05:50;;;;;;;17.92;4.57;;;4.60;99.90;;;;;;5008338;28;20860;-67
2023/04/25 02:08:17;;;;;;;18.10;4.53;;;4.50;99.90;;;;;;4992032;28;20045;-67
2023/04/25 02:10:43;;;;;;;15.50;4.78;;;4.50;99.90;;;;;;5025006;28;20072;-68
2023/04/25 02:13:08;;;;;;;18.70;5.03;;;4.50;99.90;;;;;;5026328;28;20073;-68
2023/04/25 02:15:34;;;;;;;24.05;5.88;;;4.50;99.90;;;;;;5023080;28;20044;-68
2023/04/25 02:18:00;;;;;;;12.88;4.85;;;4.50;99.90;;;;;;5023524;28;20788;-68
2023/04/25 02:20:26;;;;;;;18.30;4.88;;;4.60;99.90;;;;;;4992061;28;20047;-68
2023/04/25 02:22:52;;;;;;;14.48;4.90;;;4.60;99.90;;;;;;5024171;28;20088;-68
2023/04/25 02:25:19;;;;;;;14.32;4.35;;;4.60;99.90;;;;;;5009271;28;20037;-68
2023/04/25 02:27:48;;;;;;;9.85;4.50;;;4.60;99.90;;;;;;5024445;28;20053;-68
2023/04/25 02:30:15;;;;;;;15.43;4.70;;;4.60;99.90;;;;;;5024692;28;20041;-68
2023/04/25 02:32:41;;;;;;;13.55;4.50;;;4.60;99.90;;;;;;5025497;28;20033;-68
2023/04/25 02:35:07;;;;;;;21.95;5.45;;;4.60;99.90;;;;;;5009526;28;20466;-68
2023/04/25 02:37:34;;;;;;;13.57;5.05;;;4.60;99.90;;;;;;5007021;28;20107;-68
2023/04/25 02:40:02;;;;;;;19.85;5.00;;;4.70;99.90;;;;;;5024984;28;20143;-68
2023/04/25 02:42:28;;;;;;;14.18;4.13;;;4.70;99.90;;;;;;5025061;28;20037;-68
2023/04/25 02:44:54;;;;;;;21.92;5.30;;;4.70;99.90;;;;;;5008819;28;20540;-68
2023/04/25 02:47:19;;;;;;;18.08;4.57;;;4.70;99.90;;;;;;5024655;28;20335;-68
2023/04/25 02:49:45;;;;;;;19.45;5.25;;;4.70;99.90;;;;;;5023761;28;20087;-68
2023/04/25 02:52:12;;;;;;;23.33;5.13;;;4.70;99.90;;;;;;5023691;28;20044;-68
2023/04/25 02:54:38;;;;;;;18.25;4.70;;;4.70;99.90;;;;;;5024821;28;20053;-68
2023/04/25 02:57:04;;;;;;;17.40;4.97;;;4.70;99.90;;;;;;5007779;28;20112;-68
2023/04/25 02:59:30;;;;;;;17.58;4.60;;;4.70;99.90;;;;;;5024195;28;20593;-68
2023/04/25 03:01:56;;;;;;;17.67;4.18;;;4.70;99.90;;;;;;5025417;28;20114;-68
2023/04/25 03:04:23;;;;;;;15.93;4.57;;;4.70;99.90;;;;;;5023568;28;20060;-68
2023/04/25 03:06:50;;;;;;;18.35;5.18;;;4.70;99.90;;;;;;5006402;28;20127;-68
2023/04/25 03:09:16;;;;;;;15.35;4.75;;;4.70;99.90;;;;;;5022609;28;20038;-68
2023/04/25 03:11:42;;;;;;;17.73;5.70;;;4.70;99.90;;;;;;5024362;28;20482;-68
2023/04/25 03:14:07;;;;;;;23.30;4.93;;;4.70;99.90;;;;;;5023853;28;20095;-68
2023/04/25 03:16:34;;;;;;;16.77;4.57;;;4.70;99.90;;;;;;5023640;28;20056;-68
2023/04/25 03:18:59;;;;;;;39.20;6.05;;;4.70;99.90;;;;;;5024093;28;20042;-68
2023/04/25 03:21:26;;;;;;;18.02;4.50;;;4.70;99.90;;;;;;5021998;28;20048;-68
2023/04/25 03:23:52;;;;;;;8.90;3.75;;;4.70;99.90;;;;;;5009256;28;20052;-68
2023/04/25 03:26:17;;;;;;;15.95;4.22;;;4.70;99.90;;;;;;5007159;28;20395;-68
2023/04/25 03:28:43;;;;;;;18.85;4.85;;;4.70;99.90;;;;;;5023221;28;20490;-68
2023/04/25 03:31:09;;;;;;;10.45;4.43;;;4.70;99.90;;;;;;5023542;28;20033;-68
2023/04/25 03:33:35;;;;;;;12.30;4.07;;;4.70;99.90;;;;;;5023419;28;20069;-68
2023/04/25 03:36:00;;;;;;;17.52;4.75;;;4.70;99.90;;;;;;5024718;28;20030;-68
2023/04/25 03:38:26;;;;;;;29.08;5.30;;;4.70;99.90;;;;;;5006609;28;20054;-68
2023/04/25 03:40:52;;;;;;;16.27;4.95;;;4.70;99.90;;;;;;5007207;28;20092;-68
2023/04/25 03:43:18;;;;;;;18.05;4.97;;;4.70;99.90;;;;;;4992083;28;20057;-68
2023/04/25 03:45:44;;;;;;;17.38;3.53;;;4.70;99.90;;;;;;5007535;28;20383;-68
2023/04/25 03:48:09;;;;;;;18.00;4.13;;;4.80;99.90;;;;;;5022842;28;20172;-68
2023/04/25 03:50:35;;;;;;;16.52;4.15;;;4.80;99.90;;;;;;5023423;28;20045;-68
2023/04/25 03:53:01;;;;;;;15.20;3.45;;;4.80;99.90;;;;;;5022267;28;20041;-68
2023/04/25 03:55:26;;;;;;;19.00;3.90;;;4.80;99.90;;;;;;5007017;28;20314;-68
2023/04/25 03:57:52;;;;;;;16.60;4.28;;;4.80;99.90;;;;;;5006330;28;20045;-68
2023/04/25 04:00:18;;;;;;;18.35;3.90;;;4.70;99.90;;;;;;5005724;28;20124;-68
2023/04/25 04:02:43;;;;;;;16.35;3.28;;;4.70;99.90;;;;;;5007845;28;20852;-69
2023/04/25 04:05:09;;;;;;;16.33;3.60;;;4.80;99.90;;;;;;5009044;28;20402;-68
2023/04/25 04:07:39;;;;;;;14.68;3.38;;;4.80;99.90;;;;;;5011419;28;20034;-68
2023/04/25 04:10:07;;;;;;;20.05;4.40;;;4.70;99.90;;;;;;5024464;28;20105;-68
2023/04/25 04:12:33;;;;;;;17.35;4.25;;;4.70;99.90;;;;;;5024213;28;20049;-68
2023/04/25 04:14:59;;;;;;;13.27;3.85;;;4.70;99.90;;;;;;5022891;28;20034;-69
2023/04/25 04:17:25;;;;;;;17.85;4.25;;;4.70;99.90;;;;;;5024595;28;20063;-69
2023/04/25 04:19:50;;;;;;;18.70;3.97;;;4.70;99.90;;;;;;5011286;28;20053;-68
2023/04/25 04:22:16;;;;;;;19.13;3.70;;;4.70;99.90;;;;;;5009090;28;20531;-68
2023/04/25 04:24:46;;;;;;;9.57;3.65;;;4.70;99.90;;;;;;5025530;28;20046;-68
2023/04/25 04:27:12;;;;;;;11.38;3.70;;;4.70;99.90;;;;;;5024406;28;20524;-68
2023/04/25 04:29:38;;;;;;;15.32;3.95;;;4.60;99.90;;;;;;5026905;28;20189;-68
2023/04/25 04:32:04;;;;;;;15.98;4.05;;;4.60;99.90;;;;;;5026590;28;20125;-68
2023/04/25 04:34:30;;;;;;;15.55;3.10;;;4.60;99.90;;;;;;5025823;28;20049;-68
2023/04/25 04:36:57;;;;;;;11.63;3.67;;;4.60;99.90;;;;;;5006969;28;20052;-68
2023/04/25 04:39:22;;;;;;;15.13;3.13;;;4.60;99.90;;;;;;5023900;28;20080;-68
2023/04/25 04:41:48;;;;;;;12.32;3.25;;;4.60;99.90;;;;;;5026554;28;20686;-68
2023/04/25 04:44:14;;;;;;;12.15;2.92;;;4.60;99.90;;;;;;5026368;28;20045;-68
2023/04/25 04:46:41;;;;;;;11.07;3.30;;;4.60;99.90;;;;;;5011285;28;20042;-68
2023/04/25 04:49:12;;;;;;;10.88;3.42;;;4.60;99.90;;;;;;5009460;28;20029;-68
2023/04/25 04:51:38;;;;;;;11.65;3.40;;;4.50;99.90;;;;;;5026081;28;20041;-68
2023/04/25 04:54:04;;;;;;;8.45;2.67;;;4.60;99.90;;;;;;5024708;28;20046;-68
2023/04/25 04:56:30;;;;;;;13.27;3.20;;;4.50;99.90;;;;;;5023648;28;20067;-68
2023/04/25 04:58:57;;;;;;;6.40;2.50;;;4.50;99.90;;;;;;5026384;28;20144;-68
2023/04/25 05:01:23;;;;;;;7.07;2.13;;;4.50;99.90;;;;;;5025451;28;20151;-69
2023/04/25 05:03:49;;;;;;;7.55;1.90;;;4.50;99.90;;;;;;5027668;28;20033;-68
2023/04/25 05:06:16;;;;;;;10.48;2.20;;;4.40;99.90;;;;;;5023972;28;20049;-69
2023/04/25 05:08:42;;;;;;;5.53;2.20;;;4.40;99.90;;;;;;5028219;28;20069;-68
2023/04/25 05:11:07;;;;;;;9.35;2.53;;;4.40;99.90;;;;;;5042643;28;20498;-68
2023/04/25 05:13:33;;;;;;;5.45;2.13;;;4.40;99.90;;;;;;5008782;28;20487;-68
2023/04/25 05:15:59;;;;;;;6.28;2.00;;;4.50;99.90;;;;;;5026609;28;20106;-68
2023/04/25 05:18:24;;;;;;;10.93;2.15;;;4.50;99.90;;;;;;5010370;28;20052;-68
2023/04/25 05:20:50;;;;;;;5.10;2.20;;;4.60;99.90;;;;;;5007280;28;20048;-68
2023/04/25 05:23:16;;;;;;;7.82;2.40;;;4.70;99.90;;;;;;5026452;28;20038;-68
2023/04/25 05:25:42;;;;;;;13.68;2.30;;;4.70;99.90;;;;;;5026641;28;20034;-68
2023/04/25 05:28:07;;;;;;;4.50;2.10;;;4.80;99.90;;;;;;5024299;28;20120;-68
2023/04/25 05:30:35;;;;;;;9.57;2.55;;;4.80;99.90;;;;;;5024706;28;20581;-68
2023/04/25 05:33:01;;;;;;;9.80;2.85;;;4.80;99.90;;;;;;5027333;28;20040;-68
2023/04/25 05:35:27;;;;;;;10.68;2.10;;;4.80;99.90;;;;;;5025354;28;20099;-68
2023/04/25 05:37:52;;;;;;;4.65;2.03;;;4.80;99.90;;;;;;4994293;28;20041;-68
2023/04/25 05:40:18;;;;;;;7.78;2.42;;;4.80;99.90;;;;;;5026413;28;21762;-68
2023/04/25 05:42:44;;;;;;;10.10;2.00;;;4.80;99.90;;;;;;5009466;28;20098;-68
2023/04/25 05:45:10;;;;;;;7.65;2.33;;;4.80;99.90;;;;;;5024891;28;20029;-68
2023/04/25 05:47:35;;;;;;;7.07;2.50;;;4.80;99.90;;;;;;5009496;28;20037;-68
2023/04/25 05:50:01;;;;;;;12.73;2.92;;;4.90;99.90;;;;;;5024230;28;20091;-68
2023/04/25 05:52:27;;;;;;;12.73;2.92;;;4.80;99.90;;;;;;5006385;28;20781;-68
2023/04/25 05:54:53;;;;;;;8.77;2.95;;;4.90;99.90;;;;;;5018664;28;20034;-69
2023/04/25 05:57:26;;;;;;;11.48;2.40;;;4.90;99.90;;;;;;5008536;28;20038;-68
2023/04/25 05:59:52;;;;;;;7.60;2.13;;;4.90;99.90;;;;;;5021800;28;20064;-68
2023/04/25 06:02:20;;;;;;;11.15;2.95;;;5.00;99.90;;;;;;5010873;28;20049;-69
2023/04/25 06:04:46;;;;;;;5.97;2.15;;;5.00;99.90;;;;;;5012545;28;20041;-69
2023/04/25 06:07:12;;;;;;;10.50;2.97;;;5.00;99.90;;;;;;5014126;28;20049;-69
2023/04/25 06:09:39;;;;;;;5.35;2.35;;;5.10;99.90;;;;;;5030626;28;20033;-69
2023/04/25 06:12:06;;;;;;;7.65;2.00;;;5.20;99.90;;;;;;5042015;28;20486;-69
2023/04/25 06:14:32;;;;;;;10.50;2.25;;;5.30;99.90;;;;;;5014373;28;20042;-69
2023/04/25 06:16:58;;;;;;;9.25;2.25;;;5.40;99.90;;;;;;5030045;28;20048;-69
2023/04/25 06:19:23;;;;;;;5.97;1.73;;;5.50;99.90;;;;;;5013671;28;20033;-69
2023/04/25 06:21:49;;;;;;;11.68;2.33;;;5.60;99.90;;;;;;4993708;28;20056;-69
2023/04/25 06:24:15;;;;;;;15.07;2.75;;;5.70;99.90;;;;;;5011609;28;20045;-69
2023/04/25 06:26:40;;;;;;;8.45;1.92;;;5.70;99.90;;;;;;4982215;28;20041;-69
2023/04/25 06:29:06;;;;;;;11.02;2.60;;;5.80;99.90;;;;;;5029924;28;20379;-69
2023/04/25 06:31:35;;;;;;;6.03;2.70;;;5.90;99.90;;;;;;5029854;28;20254;-69
2023/04/25 06:34:01;;;;;;;7.57;2.20;;;6.00;99.90;;;;;;5025880;28;20448;-69
2023/04/25 06:36:27;;;;;;;11.80;2.60;;;6.00;99.90;;;;;;5025092;28;21401;-69
2023/04/25 06:38:54;;;;;;;9.57;2.50;;;6.00;99.90;;;;;;5024952;28;20044;-68
2023/04/25 06:41:20;;;;;;;10.18;2.80;;;6.00;99.90;;;;;;5017606;28;20068;-69
2023/04/25 06:43:46;;;;;;;8.52;2.35;;;6.10;99.90;;;;;;5008197;28;20580;-69
2023/04/25 06:46:12;;;;;;;12.57;2.75;;;6.20;99.90;;;;;;4996219;28;20041;-69
2023/04/25 06:48:38;;;;;;;8.65;2.10;;;6.20;99.90;;;;;;5029602;28;20378;-69
2023/04/25 06:51:04;;;;;;;7.63;2.65;;;6.40;99.90;;;;;;5029327;28;20239;-69
2023/04/25 06:53:29;;;;;;;18.20;3.47;;;6.40;99.90;;;;;;5011431;28;20437;-69
2023/04/25 06:55:55;;;;;;;7.72;2.33;;;6.40;99.90;;;;;;5025106;28;20441;-69
2023/04/25 06:58:21;;;;;;;10.75;2.13;;;6.50;99.90;;;;;;5031400;28;20045;-69
2023/04/25 07:00:46;;;;;;;12.40;2.70;;;6.60;99.90;;;;;;5031881;28;20696;-70
2023/04/25 07:03:12;;;;;;;10.52;2.20;;;6.80;99.90;;;;;;5016093;28;20094;-69
2023/04/25 07:05:38;;;;;;;9.52;2.83;;;6.80;99.90;;;;;;4998067;28;20037;-69
2023/04/25 07:08:04;;;;;;;15.43;3.30;;;6.80;99.90;;;;;;5015367;28;20048;-69
2023/04/25 07:10:29;;;;;;;9.35;3.03;;;7.00;99.90;;;;;;5032982;28;20064;-69
2023/04/25 07:12:55;;;;;;;10.98;2.83;;;7.10;99.90;;;;;;5032788;28;20510;-69
2023/04/25 07:15:21;;;;;;;11.88;2.50;;;7.30;99.90;;;;;;5014724;28;20513;-69
2023/04/25 07:17:47;;;;;;;12.48;2.30;;;7.70;99.90;;;;;;5000020;28;20102;-69
2023/04/25 07:20:12;;;;;;;9.23;2.25;;;8.40;99.90;;;;;;5031522;28;20413;-69
2023/04/25 07:22:38;;;;;;;7.35;2.10;;;9.10;99.90;;;;;;4997263;28;20072;-69
2023/04/25 07:25:05;;;;;;;6.93;2.08;;;9.50;99.90;;;;;;5015830;28;20040;-69
2023/04/25 07:27:31;;;;;;;10.43;2.55;;;9.60;99.90;;;;;;5046266;28;20049;-68
2023/04/25 07:29:57;;;;;;;9.38;2.28;;;9.80;99.90;;;;;;5030912;28;20156;-67
2023/04/25 07:32:23;;;;;;;13.77;3.08;;;10.20;99.90;;;;;;5030653;28;20111;-68
2023/04/25 07:34:48;;;;;;;7.38;3.00;;;10.70;99.90;;;;;;5008034;28;20036;-68
2023/04/25 07:37:15;;;;;;;7.43;3.35;;;10.50;99.90;;;;;;5028208;28;20032;-68
2023/04/25 07:39:40;;;;;;;5.95;3.28;;;10.00;99.90;;;;;;5029565;28;20072;-68
2023/04/25 07:42:10;;;;;;;8.32;2.30;;;8.80;99.90;;;;;;5032193;28;20037;-68
2023/04/25 07:44:38;;;;;;;9.05;3.05;;;8.30;99.90;;;;;;5032203;28;20413;-68
2023/04/25 07:47:06;;;;;;;10.73;2.00;;;8.30;99.90;;;;;;4998906;28;20477;-68
2023/04/25 07:49:34;;;;;;;8.27;3.03;;;8.90;99.90;;;;;;4992683;28;20033;-68
2023/04/25 07:52:00;;;;;;;7.97;1.80;;;9.20;99.90;;;;;;5019036;28;20400;-69
2023/04/25 07:54:26;;;;;;;5.40;2.33;;;9.30;99.90;;;;;;5042585;28;20446;-69
2023/04/25 07:56:52;;;;;;;4.13;1.60;;;9.70;99.90;;;;;;5026265;28;20098;-68
2023/04/25 07:59:18;;;;;;;12.55;2.40;;;10.00;99.90;;;;;;5013993;28;20072;-69
2023/04/25 08:01:43;;;;;;;8.65;1.80;;;10.30;99.90;;;;;;4995128;28;20445;-69
2023/04/25 08:04:10;;;;;;;6.75;2.20;;;10.40;99.90;;;;;;4989882;28;20038;-68
2023/04/25 08:06:35;;;;;;;7.55;1.55;;;10.40;99.90;;;;;;5009128;28;20176;-69
2023/04/25 08:09:02;;;;;;;11.65;2.20;;;10.60;99.90;;;;;;4994078;28;20048;-69
2023/04/25 08:11:28;;;;;;;5.57;2.05;;;10.50;99.90;;;;;;5011614;28;20057;-68
2023/04/25 08:13:54;;;;;;;11.27;1.80;;;10.30;99.90;;;;;;4992121;28;20422;-68
2023/04/25 08:16:20;;;;;;;6.65;2.20;;;9.50;99.90;;;;;;4994707;28;20116;-69
2023/04/25 08:18:45;;;;;;;5.97;1.90;;;8.80;99.90;;;;;;5010646;28;20041;-68
2023/04/25 08:21:12;;;;;;;6.40;1.88;;;8.40;99.90;;;;;;4986645;28;20382;-69
2023/04/25 08:23:38;;;;;;;4.72;1.60;;;8.00;99.90;;;;;;5011363;28;20037;-69
2023/04/25 08:26:05;;;;;;;5.10;1.90;;;7.70;99.90;;;;;;4992695;28;20046;-67
2023/04/25 08:28:31;;;;;;;5.15;1.70;;;7.80;99.90;;;;;;4977457;28;20068;-67
2023/04/25 08:30:57;;;;;;;7.72;1.75;;;8.80;99.90;;;;;;5010994;28;20128;-67
2023/04/25 08:33:23;;;;;;;4.78;1.33;;;9.90;99.90;;;;;;4991204;28;20480;-67
2023/04/25 08:35:48;;;;;;;7.22;1.80;;;10.50;99.90;;;;;;4993686;28;20490;-68
2023/04/25 08:38:14;;;;;;;6.95;2.00;;;10.50;99.60;;;;;;4993720;28;20045;-69
2023/04/25 08:40:44;;;;;;;7.05;1.90;;;10.30;99.90;;;;;;5009721;28;20124;-69
2023/04/25 08:43:14;;;;;;;3.63;1.20;;;10.10;99.70;;;;;;5012026;28;20045;-68
2023/04/25 08:45:41;;;;;;;6.50;1.80;;;9.40;98.30;;;;;;4995008;28;20051;-68
2023/04/25 08:48:13;;;;;;;4.72;1.48;;;9.00;99.90;;;;;;4979465;28;20512;-68
2023/04/25 08:50:50;;;;;;;4.95;1.20;;;8.40;99.90;;;;;;5012802;28;20864;-68
2023/04/25 08:53:19;;;;;;;5.32;2.00;;;7.80;99.90;;;;;;5009130;28;20124;-69
2023/04/25 08:55:46;;;;;;;6.10;1.77;;;7.30;99.90;;;;;;4993788;28;20037;-68
2023/04/25 08:58:13;;;;;;;8.98;1.88;;;6.90;99.90;;;;;;4994643;28;20076;-69
2023/04/25 09:00:39;;;;;;;6.05;2.00;;;6.60;99.90;;;;;;4997145;28;20045;-69
2023/04/25 09:03:05;;;;;;;9.25;2.38;;;6.40;99.90;;;;;;5014845;28;20390;-69
2023/04/25 09:05:33;;;;;;;10.20;2.22;;;6.90;99.90;;;;;;5016986;28;20055;-68
2023/04/25 09:08:00;;;;;;;6.20;1.85;;;7.90;99.90;;;;;;4984781;28;20041;-69
2023/04/25 09:10:27;;;;;;;6.70;1.67;;;8.90;99.90;;;;;;5016742;28;20420;-69
2023/04/25 09:13:26;;;;;;;8.27;2.05;;;9.80;99.90;;;;;;5013884;28;20048;-68
2023/04/25 09:15:54;;;;;;;7.05;2.22;;;10.30;99.90;;;;;;5005159;28;20057;-69
2023/04/25 09:18:26;;;;;;;7.30;2.03;;;10.70;99.90;;;;;;5012489;28;20095;-69
2023/04/25 09:20:58;;;;;;;6.32;1.55;;;11.10;99.90;;;;;;4999549;28;20061;-69
2023/04/25 09:23:24;;;;;;;4.23;1.70;;;11.50;99.90;;;;;;5017592;28;20515;-69
2023/04/25 09:25:52;;;;;;;6.18;2.00;;;11.80;99.90;;;;;;5016757;28;20322;-69
2023/04/25 09:28:25;;;;;;;4.60;1.75;;;11.90;99.90;;;;;;5000443;28;20048;-69
2023/04/25 09:30:56;;;;;;;3.20;1.40;;;12.50;99.90;;;;;;5016674;28;20080;-69
2023/04/25 09:33:30;;;;;;;5.32;1.77;;;11.70;99.90;;;;;;5017017;28;20426;-69
2023/04/25 09:36:11;;;;;;;6.45;1.70;;;10.70;99.90;;;;;;5015801;28;20037;-69
2023/04/25 09:38:42;;;;;;;3.50;1.70;;;10.00;99.90;;;;;;5018768;28;20044;-69
2023/04/25 09:41:09;;;;;;;7.47;1.70;;;9.40;99.90;;;;;;5017675;28;20049;-68
2023/04/25 09:43:36;;;;;;;6.30;1.95;;;8.90;99.90;;;;;;5015561;28;20045;-68
2023/04/25 09:46:01;;;;;;;6.40;1.83;;;8.60;99.90;;;;;;5015910;28;20123;-69
2023/04/25 09:48:28;;;;;;;3.53;1.25;;;8.60;99.90;;;;;;5015669;28;20048;-68
2023/04/25 09:51:03;;;;;;;11.23;1.90;;;8.60;99.90;;;;;;5018395;28;20041;-68
2023/04/25 09:53:30;;;;;;;2.70;1.05;;;8.70;99.90;;;;;;5004629;28;20700;-68
2023/04/25 09:55:59;;;;;;;8.95;1.50;;;8.50;99.90;;;;;;4985039;28;20098;-68
2023/04/25 09:58:28;;;;;;;2.97;1.15;;;8.30;99.90;;;;;;5014662;28;20074;-68
2023/04/25 10:00:57;;;;;;;2.53;0.85;;;8.10;99.90;;;;;;5015866;28;20143;-68
2023/04/25 10:03:25;;;;;;;2.20;1.10;;;8.00;99.90;;;;;;5015926;28;20185;-68
2023/04/25 10:05:52;;;;;;;3.85;1.38;;;8.10;99.90;;;;;;5033886;28;20346;-68
2023/04/25 10:08:19;;;;;;;5.18;1.38;;;8.30;99.90;;;;;;4967350;28;20041;-68
2023/04/25 10:10:46;;;;;;;5.13;1.65;;;8.50;99.90;;;;;;4985986;28;21167;-67
2023/04/25 10:13:14;;;;;;;5.07;1.63;;;8.60;99.90;;;;;;5014731;28;20542;-68
2023/04/25 10:15:41;;;;;;;4.07;1.27;;;8.80;99.90;;;;;;5014592;28;20099;-67
2023/04/25 10:18:07;;;;;;;6.82;1.92;;;9.10;99.90;;;;;;5015342;28;20110;-67
2023/04/25 10:20:32;;;;;;;3.45;1.10;;;9.10;99.90;;;;;;5014726;28;20564;-68
2023/04/25 10:23:08;;;;;;;3.88;1.38;;;9.60;99.90;;;;;;5020234;28;20052;-68
2023/04/25 10:25:35;;;;;;;4.32;1.55;;;10.40;99.90;;;;;;5016555;28;20049;-67
2023/04/25 10:28:03;;;;;;;7.22;1.67;;;10.90;99.70;;;;;;5013410;28;20144;-68
2023/04/25 10:30:29;;;;;;;6.55;1.75;;;11.10;99.90;;;;;;5016646;28;20538;-68
2023/04/25 10:32:56;;;;;;;14.30;2.33;;;11.30;99.40;;;;;;5013701;28;20039;-68
2023/04/25 10:35:28;;;;;;;6.00;1.50;;;11.60;99.70;;;;;;5014065;28;20062;-68
2023/04/25 10:38:05;;;;;;;2.95;1.27;;;11.90;99.70;;;;;;4998531;28;20364;-68
2023/04/25 10:40:32;;;;;;;5.20;1.38;;;11.60;99.90;;;;;;4998207;28;20049;-67
2023/04/25 10:43:23;;;;;;;4.57;1.10;;;10.00;99.90;;;;;;5014732;28;20041;-67
2023/04/25 10:45:52;;;;;;;6.28;1.40;;;8.70;99.90;;;;;;5017111;28;20075;-67
2023/04/25 10:48:29;;;;;;;6.63;1.80;;;7.90;99.90;;;;;;5013868;28;20052;-67
2023/04/25 10:51:15;;;;;;;3.75;1.40;;;7.00;99.90;;;;;;4998472;28;20055;-67
2023/04/25 10:53:41;;;;;;;8.93;2.00;;;7.10;99.90;;;;;;4988258;28;20263;-69
2023/04/25 10:56:17;;;;;;;6.68;2.00;;;7.20;99.90;;;;;;4998708;28;20509;-69
2023/04/25 10:58:47;;;;;;;4.63;1.67;;;7.70;99.90;;;;;;5013360;28;20136;-69
2023/04/25 11:01:20;;;;;;;6.00;1.73;;;8.40;99.90;;;;;;4996879;28;20080;-69
2023/04/25 11:03:50;;;;;;;5.20;1.65;;;9.10;99.90;;;;;;4997899;28;20041;-68
2023/04/25 11:06:44;;;;;;;3.10;1.38;;;9.40;99.90;;;;;;4998835;28;20041;-69
2023/04/25 11:09:15;;;;;;;3.45;1.63;;;9.80;99.90;;;;;;4996748;28;20047;-68
2023/04/25 11:11:41;;;;;;;5.28;1.80;;;10.20;99.90;;;;;;4998902;28;20041;-68
2023/04/25 11:14:07;;;;;;;8.93;1.95;;;10.40;99.90;;;;;;5013776;28;20107;-68
2023/04/25 11:16:33;;;;;;;6.75;1.90;;;10.90;99.90;;;;;;4997560;28;20152;-68
2023/04/25 11:18:58;;;;;;;7.53;1.95;;;11.10;99.90;;;;;;5013884;28;20482;-67
2023/04/25 11:21:27;;;;;;;10.18;2.35;;;11.10;99.90;;;;;;5029454;28;20545;-68
2023/04/25 11:23:56;;;;;;;5.35;2.20;;;11.00;99.90;;;;;;4998214;28;20052;-67
2023/04/25 11:26:22;;;;;;;10.65;2.30;;;10.60;99.90;;;;;;5011200;28;20814;-67
2023/04/25 11:28:49;;;;;;;14.00;2.33;;;10.30;99.90;;;;;;4997704;28;20041;-68
2023/04/25 11:31:15;;;;;;;5.40;1.80;;;10.00;99.90;;;;;;4995757;28;20032;-68
2023/04/25 11:33:42;;;;;;;8.70;2.50;;;9.50;99.90;;;;;;5012301;28;21031;-70
2023/04/25 11:36:08;;;;;;;7.65;2.10;;;9.10;99.90;;;;;;4982332;28;20116;-69
2023/04/25 11:38:34;;;;;;;6.78;2.17;;;8.70;99.90;;;;;;5013098;28;20036;-70
2023/04/25 11:41:00;;;;;;;8.60;2.30;;;8.40;99.90;;;;;;4998280;28;20134;-69
2023/04/25 11:43:26;;;;;;;7.43;2.00;;;8.40;99.90;;;;;;4978279;28;20048;-69
2023/04/25 11:45:52;;;;;;;4.43;1.73;;;8.20;99.90;;;;;;4983974;28;20099;-68
2023/04/25 11:48:18;;;;;;;3.63;1.35;;;8.10;99.90;;;;;;5014867;28;20072;-69
2023/04/25 11:50:44;;;;;;;3.63;1.33;;;7.90;99.90;;;;;;4998971;28;20037;-68
2023/04/25 11:53:10;;;;;;;2.13;1.15;;;7.70;99.90;;;;;;5016644;28;20495;-68
2023/04/25 11:55:37;;;;;;;4.68;2.03;;;7.80;99.90;;;;;;5009798;28;20502;-68
2023/04/25 11:58:03;;;;;;;6.18;1.50;;;7.80;99.90;;;;;;5009746;28;20052;-68
2023/04/25 12:00:30;;;;;;;5.13;1.33;;;8.10;99.90;;;;;;5025472;28;20067;-68
2023/04/25 12:03:00;;;;;;;3.88;1.50;;;8.60;99.90;;;;;;4994262;28;20714;-69
2023/04/25 12:05:29;;;;;;;3.13;1.80;;;9.20;99.90;;;;;;5010155;28;20052;-69
2023/04/25 12:07:55;;;;;;;6.65;1.75;;;9.30;99.90;;;;;;5010840;28;20045;-69
2023/04/25 12:10:20;;;;;;;5.47;1.63;;;8.90;99.90;;;;;;5025222;28;20170;-69
2023/04/25 12:12:48;;;;;;;3.83;1.77;;;8.80;99.90;;;;;;4995564;28;20052;-69
2023/04/25 12:15:17;;;;;;;6.55;1.65;;;9.00;99.90;;;;;;5012495;28;20052;-69
2023/04/25 12:17:46;;;;;;;3.95;1.30;;;9.30;99.90;;;;;;5016010;28;20123;-69
2023/04/25 12:20:17;;;;;;;3.58;1.50;;;9.40;99.90;;;;;;5013971;28;20091;-69
2023/04/25 12:22:46;;;;;;;6.90;1.65;;;9.50;99.90;;;;;;4994929;28;20083;-69
2023/04/25 12:25:13;;;;;;;7.13;2.10;;;9.70;99.90;;;;;;4995092;28;20784;-69
2023/04/25 12:27:41;;;;;;;8.18;1.60;;;9.80;99.90;;;;;;5001809;28;20512;-68
2023/04/25 12:30:08;;;;;;;2.88;1.40;;;10.30;99.90;;;;;;5002046;28;20043;-68
2023/04/25 12:32:34;;;;;;;2.80;1.35;;;10.70;99.90;;;;;;5018754;28;20040;-68
2023/04/25 12:35:00;;;;;;;7.22;1.60;;;10.80;99.90;;;;;;5001329;28;20045;-68
2023/04/25 12:37:26;;;;;;;7.65;2.08;;;10.90;99.90;;;;;;5002716;28;20098;-68
2023/04/25 12:39:51;;;;;;;6.30;1.95;;;10.70;99.90;;;;;;5020986;28;20051;-68
2023/04/25 12:42:17;;;;;;;12.93;2.05;;;10.20;99.90;;;;;;5006459;28;20094;-68
2023/04/25 12:44:43;;;;;;;11.82;1.92;;;10.20;99.90;;;;;;4989769;28;20446;-67
2023/04/25 12:47:09;;;;;;;6.60;1.73;;;10.00;99.90;;;;;;5021889;28;20539;-68
2023/04/25 12:49:35;;;;;;;6.60;1.80;;;9.90;99.90;;;;;;5020024;28;20036;-68